sensor_id;sensor_type;location;lat;lon;timestamp;P1;durP1;ratioP1;P2;durP2;ratioP2
18657;SDS011;9458;50.942;5.074;2023-05-14T00:00:03;13.90;;;11.90;;
18657;SDS011;9458;50.942;5.074;2023-05-14T00:02:32;12.85;;;11.55;;
18657;SDS011;9458;50.942;5.074;2023-05-14T00:05:12;13.15;;;11.77;;
18657;SDS011;9458;50.942;5.074;2023-05-14T00:07:45;14.30;;;12.55;;
18657;SDS011;9458;50.942;5.074;2023-05-14T00:10:25;13.80;;;12.38;;
18657;SDS011;9458;50.942;5.074;2023-05-14T00:13:05;14.50;;;11.98;;
18657;SDS011;9458;50.942;5.074;2023-05-14T00:15:38;16.80;;;13.45;;
18657;SDS011;9458;50.942;5.074;2023-05-14T00:18:11;15.35;;;13.57;;
18657;SDS011;9458;50.942;5.074;2023-05-14T00:20:40;15.05;;;13.55;;
18657;SDS011;9458;50.942;5.074;2023-05-14T00:23:08;15.93;;;14.23;;
18657;SDS011;9458;50.942;5.074;2023-05-14T00:25:39;16.85;;;14.90;;
18657;SDS011;9458;50.942;5.074;2023-05-14T00:28:10;17.38;;;14.32;;
18657;SDS011;9458;50.942;5.074;2023-05-14T00:30:44;16.45;;;14.95;;
18657;SDS011;9458;50.942;5.074;2023-05-14T00:33:22;17.77;;;15.35;;
18657;SDS011;9458;50.942;5.074;2023-05-14T00:36:01;17.20;;;15.32;;
18657;SDS011;9458;50.942;5.074;2023-05-14T00:38:38;17.70;;;15.38;;
18657;SDS011;9458;50.942;5.074;2023-05-14T00:41:15;17.98;;;16.05;;
18657;SDS011;9458;50.942;5.074;2023-05-14T00:43:45;18.48;;;16.02;;
18657;SDS011;9458;50.942;5.074;2023-05-14T00:46:16;17.88;;;16.05;;
18657;SDS011;9458;50.942;5.074;2023-05-14T00:48:44;17.90;;;16.05;;
18657;SDS011;9458;50.942;5.074;2023-05-14T00:51:14;18.55;;;16.05;;
18657;SDS011;9458;50.942;5.074;2023-05-14T00:53:44;18.42;;;16.02;;
18657;SDS011;9458;50.942;5.074;2023-05-14T00:56:13;18.50;;;16.60;;
18657;SDS011;9458;50.942;5.074;2023-05-14T00:58:41;18.95;;;16.83;;
18657;SDS011;9458;50.942;5.074;2023-05-14T01:01:13;18.27;;;16.38;;
18657;SDS011;9458;50.942;5.074;2023-05-14T01:03:42;18.88;;;17.08;;
18657;SDS011;9458;50.942;5.074;2023-05-14T01:06:21;18.27;;;16.38;;
18657;SDS011;9458;50.942;5.074;2023-05-14T01:08:58;20.15;;;17.75;;
18657;SDS011;9458;50.942;5.074;2023-05-14T01:11:32;21.73;;;17.75;;
18657;SDS011;9458;50.942;5.074;2023-05-14T01:14:18;20.63;;;17.02;;
18657;SDS011;9458;50.942;5.074;2023-05-14T01:16:49;19.25;;;17.35;;
18657;SDS011;9458;50.942;5.074;2023-05-14T01:19:25;19.38;;;17.38;;
18657;SDS011;9458;50.942;5.074;2023-05-14T01:22:11;19.05;;;17.05;;
18657;SDS011;9458;50.942;5.074;2023-05-14T01:24:39;20.13;;;17.98;;
18657;SDS011;9458;50.942;5.074;2023-05-14T01:27:09;21.10;;;18.38;;
18657;SDS011;9458;50.942;5.074;2023-05-14T01:29:44;21.90;;;18.25;;
18657;SDS011;9458;50.942;5.074;2023-05-14T01:32:17;20.90;;;18.70;;
18657;SDS011;9458;50.942;5.074;2023-05-14T01:34:53;22.08;;;19.77;;
18657;SDS011;9458;50.942;5.074;2023-05-14T01:37:32;20.85;;;18.65;;
18657;SDS011;9458;50.942;5.074;2023-05-14T01:40:03;22.55;;;19.60;;
18657;SDS011;9458;50.942;5.074;2023-05-14T01:42:34;22.73;;;20.00;;
18657;SDS011;9458;50.942;5.074;2023-05-14T01:45:02;22.60;;;20.05;;
18657;SDS011;9458;50.942;5.074;2023-05-14T01:47:39;26.35;;;21.08;;
18657;SDS011;9458;50.942;5.074;2023-05-14T01:50:11;23.52;;;20.75;;
18657;SDS011;9458;50.942;5.074;2023-05-14T01:52:50;23.98;;;21.38;;
18657;SDS011;9458;50.942;5.074;2023-05-14T01:55:22;25.83;;;22.63;;
18657;SDS011;9458;50.942;5.074;2023-05-14T01:57:51;25.05;;;22.33;;
18657;SDS011;9458;50.942;5.074;2023-05-14T02:00:22;27.83;;;21.85;;
18657;SDS011;9458;50.942;5.074;2023-05-14T02:02:53;27.63;;;23.52;;
18657;SDS011;9458;50.942;5.074;2023-05-14T02:05:32;26.23;;;23.33;;
18657;SDS011;9458;50.942;5.074;2023-05-14T02:08:08;26.33;;;23.17;;
18657;SDS011;9458;50.942;5.074;2023-05-14T02:10:37;28.80;;;24.42;;
18657;SDS011;9458;50.942;5.074;2023-05-14T02:13:05;29.27;;;23.70;;
18657;SDS011;9458;50.942;5.074;2023-05-14T02:15:34;29.75;;;24.20;;
18657;SDS011;9458;50.942;5.074;2023-05-14T02:18:06;29.80;;;24.13;;
18657;SDS011;9458;50.942;5.074;2023-05-14T02:20:33;30.02;;;25.00;;
18657;SDS011;9458;50.942;5.074;2023-05-14T02:23:01;30.40;;;23.52;;
18657;SDS011;9458;50.942;5.074;2023-05-14T02:25:31;31.13;;;25.25;;
18657;SDS011;9458;50.942;5.074;2023-05-14T02:27:59;28.27;;;23.88;;
18657;SDS011;9458;50.942;5.074;2023-05-14T02:30:28;31.45;;;26.45;;
18657;SDS011;9458;50.942;5.074;2023-05-14T02:32:56;32.67;;;26.08;;
18657;SDS011;9458;50.942;5.074;2023-05-14T02:35:25;34.08;;;26.52;;
18657;SDS011;9458;50.942;5.074;2023-05-14T02:37:54;33.17;;;27.48;;
18657;SDS011;9458;50.942;5.074;2023-05-14T02:40:23;33.63;;;27.67;;
18657;SDS011;9458;50.942;5.074;2023-05-14T02:43:02;34.78;;;29.08;;
18657;SDS011;9458;50.942;5.074;2023-05-14T02:45:40;35.20;;;27.80;;
18657;SDS011;9458;50.942;5.074;2023-05-14T02:48:10;34.60;;;27.77;;
18657;SDS011;9458;50.942;5.074;2023-05-14T02:50:37;35.40;;;29.08;;
18657;SDS011;9458;50.942;5.074;2023-05-14T02:53:07;38.45;;;29.65;;
18657;SDS011;9458;50.942;5.074;2023-05-14T02:55:35;39.30;;;28.90;;
18657;SDS011;9458;50.942;5.074;2023-05-14T02:58:08;36.00;;;28.75;;
18657;SDS011;9458;50.942;5.074;2023-05-14T03:00:38;35.45;;;29.13;;
18657;SDS011;9458;50.942;5.074;2023-05-14T03:03:06;36.35;;;29.27;;
18657;SDS011;9458;50.942;5.074;2023-05-14T03:05:34;39.35;;;29.75;;
18657;SDS011;9458;50.942;5.074;2023-05-14T03:08:03;37.40;;;30.27;;
18657;SDS011;9458;50.942;5.074;2023-05-14T03:10:34;37.17;;;30.55;;
18657;SDS011;9458;50.942;5.074;2023-05-14T03:13:04;40.17;;;32.53;;
18657;SDS011;9458;50.942;5.074;2023-05-14T03:15:33;40.15;;;31.35;;
18657;SDS011;9458;50.942;5.074;2023-05-14T03:18:02;41.10;;;32.80;;
18657;SDS011;9458;50.942;5.074;2023-05-14T03:20:31;48.65;;;33.72;;
18657;SDS011;9458;50.942;5.074;2023-05-14T03:23:04;44.83;;;32.75;;
18657;SDS011;9458;50.942;5.074;2023-05-14T03:25:31;47.58;;;34.28;;
18657;SDS011;9458;50.942;5.074;2023-05-14T03:28:01;44.30;;;34.28;;
18657;SDS011;9458;50.942;5.074;2023-05-14T03:30:29;48.28;;;33.65;;
18657;SDS011;9458;50.942;5.074;2023-05-14T03:33:01;48.50;;;35.08;;
18657;SDS011;9458;50.942;5.074;2023-05-14T03:35:29;47.15;;;35.55;;
18657;SDS011;9458;50.942;5.074;2023-05-14T03:37:59;52.35;;;35.03;;
18657;SDS011;9458;50.942;5.074;2023-05-14T03:40:28;48.20;;;35.45;;
18657;SDS011;9458;50.942;5.074;2023-05-14T03:43:04;48.33;;;34.30;;
18657;SDS011;9458;50.942;5.074;2023-05-14T03:45:35;47.08;;;35.95;;
18657;SDS011;9458;50.942;5.074;2023-05-14T03:48:09;53.83;;;37.35;;
18657;SDS011;9458;50.942;5.074;2023-05-14T03:50:40;49.15;;;35.83;;
18657;SDS011;9458;50.942;5.074;2023-05-14T03:53:10;49.67;;;37.17;;
18657;SDS011;9458;50.942;5.074;2023-05-14T03:55:43;50.42;;;36.53;;
18657;SDS011;9458;50.942;5.074;2023-05-14T03:58:12;48.85;;;36.65;;
18657;SDS011;9458;50.942;5.074;2023-05-14T04:00:43;55.75;;;37.80;;
18657;SDS011;9458;50.942;5.074;2023-05-14T04:03:20;49.47;;;36.88;;
18657;SDS011;9458;50.942;5.074;2023-05-14T04:05:52;52.15;;;37.60;;
18657;SDS011;9458;50.942;5.074;2023-05-14T04:08:23;50.88;;;37.17;;
18657;SDS011;9458;50.942;5.074;2023-05-14T04:11:01;48.42;;;36.95;;
18657;SDS011;9458;50.942;5.074;2023-05-14T04:13:30;51.67;;;37.65;;
18657;SDS011;9458;50.942;5.074;2023-05-14T04:15:58;52.72;;;37.22;;
18657;SDS011;9458;50.942;5.074;2023-05-14T04:18:34;53.42;;;36.97;;
18657;SDS011;9458;50.942;5.074;2023-05-14T04:21:02;56.80;;;37.90;;
18657;SDS011;9458;50.942;5.074;2023-05-14T04:23:41;56.22;;;37.83;;
18657;SDS011;9458;50.942;5.074;2023-05-14T04:26:08;50.13;;;35.45;;
18657;SDS011;9458;50.942;5.074;2023-05-14T04:28:36;50.45;;;37.03;;
18657;SDS011;9458;50.942;5.074;2023-05-14T04:31:04;55.25;;;39.33;;
18657;SDS011;9458;50.942;5.074;2023-05-14T04:33:34;53.08;;;37.80;;
18657;SDS011;9458;50.942;5.074;2023-05-14T04:36:02;47.65;;;38.03;;
18657;SDS011;9458;50.942;5.074;2023-05-14T04:38:31;45.78;;;36.58;;
18657;SDS011;9458;50.942;5.074;2023-05-14T04:41:01;46.60;;;35.38;;
18657;SDS011;9458;50.942;5.074;2023-05-14T04:43:29;47.30;;;35.78;;
18657;SDS011;9458;50.942;5.074;2023-05-14T04:45:57;47.00;;;35.75;;
18657;SDS011;9458;50.942;5.074;2023-05-14T04:48:25;47.83;;;35.78;;
18657;SDS011;9458;50.942;5.074;2023-05-14T04:50:56;49.55;;;36.25;;
18657;SDS011;9458;50.942;5.074;2023-05-14T04:53:25;47.75;;;36.45;;
18657;SDS011;9458;50.942;5.074;2023-05-14T04:55:52;44.92;;;36.58;;
18657;SDS011;9458;50.942;5.074;2023-05-14T04:58:21;54.05;;;37.00;;
18657;SDS011;9458;50.942;5.074;2023-05-14T05:00:52;50.17;;;36.30;;
18657;SDS011;9458;50.942;5.074;2023-05-14T05:03:28;50.75;;;38.03;;
18657;SDS011;9458;50.942;5.074;2023-05-14T05:05:59;48.10;;;38.17;;
18657;SDS011;9458;50.942;5.074;2023-05-14T05:08:29;46.38;;;35.88;;
18657;SDS011;9458;50.942;5.074;2023-05-14T05:11:02;48.08;;;36.75;;
18657;SDS011;9458;50.942;5.074;2023-05-14T05:13:30;44.20;;;36.40;;
18657;SDS011;9458;50.942;5.074;2023-05-14T05:15:58;44.75;;;35.40;;
18657;SDS011;9458;50.942;5.074;2023-05-14T05:18:28;42.95;;;33.97;;
18657;SDS011;9458;50.942;5.074;2023-05-14T05:20:56;41.47;;;32.65;;
18657;SDS011;9458;50.942;5.074;2023-05-14T05:23:25;37.80;;;33.05;;
18657;SDS011;9458;50.942;5.074;2023-05-14T05:25:57;36.65;;;31.30;;
18657;SDS011;9458;50.942;5.074;2023-05-14T05:28:26;37.30;;;30.40;;
18657;SDS011;9458;50.942;5.074;2023-05-14T05:30:55;37.28;;;29.83;;
18657;SDS011;9458;50.942;5.074;2023-05-14T05:33:23;37.30;;;30.30;;
18657;SDS011;9458;50.942;5.074;2023-05-14T05:35:50;35.72;;;29.42;;
18657;SDS011;9458;50.942;5.074;2023-05-14T05:38:18;33.95;;;29.42;;
18657;SDS011;9458;50.942;5.074;2023-05-14T05:40:47;33.10;;;29.30;;
18657;SDS011;9458;50.942;5.074;2023-05-14T05:43:17;35.60;;;29.98;;
18657;SDS011;9458;50.942;5.074;2023-05-14T05:45:46;34.13;;;28.38;;
18657;SDS011;9458;50.942;5.074;2023-05-14T05:48:17;32.40;;;28.95;;
18657;SDS011;9458;50.942;5.074;2023-05-14T05:50:48;30.92;;;27.48;;
18657;SDS011;9458;50.942;5.074;2023-05-14T05:53:20;31.60;;;27.35;;
18657;SDS011;9458;50.942;5.074;2023-05-14T05:55:50;30.92;;;27.52;;
18657;SDS011;9458;50.942;5.074;2023-05-14T05:58:18;30.65;;;27.45;;
18657;SDS011;9458;50.942;5.074;2023-05-14T06:00:56;30.20;;;26.95;;
18657;SDS011;9458;50.942;5.074;2023-05-14T06:03:34;31.33;;;27.75;;
18657;SDS011;9458;50.942;5.074;2023-05-14T06:06:06;27.92;;;24.95;;
18657;SDS011;9458;50.942;5.074;2023-05-14T06:08:41;29.38;;;26.38;;
18657;SDS011;9458;50.942;5.074;2023-05-14T06:11:17;30.38;;;26.98;;
18657;SDS011;9458;50.942;5.074;2023-05-14T06:13:54;28.50;;;24.83;;
18657;SDS011;9458;50.942;5.074;2023-05-14T06:16:31;26.90;;;23.60;;
18657;SDS011;9458;50.942;5.074;2023-05-14T06:18:59;25.50;;;23.00;;
18657;SDS011;9458;50.942;5.074;2023-05-14T06:21:31;25.15;;;22.52;;
18657;SDS011;9458;50.942;5.074;2023-05-14T06:24:00;24.55;;;22.00;;
18657;SDS011;9458;50.942;5.074;2023-05-14T06:26:29;24.33;;;21.90;;
18657;SDS011;9458;50.942;5.074;2023-05-14T06:28:58;24.52;;;22.08;;
18657;SDS011;9458;50.942;5.074;2023-05-14T06:31:26;24.45;;;21.98;;
18657;SDS011;9458;50.942;5.074;2023-05-14T06:33:59;23.15;;;20.98;;
18657;SDS011;9458;50.942;5.074;2023-05-14T06:36:29;24.58;;;21.67;;
18657;SDS011;9458;50.942;5.074;2023-05-14T06:39:01;23.50;;;21.05;;
18657;SDS011;9458;50.942;5.074;2023-05-14T06:41:30;23.58;;;21.30;;
18657;SDS011;9458;50.942;5.074;2023-05-14T06:44:00;22.88;;;20.67;;
18657;SDS011;9458;50.942;5.074;2023-05-14T06:46:43;23.23;;;20.92;;
18657;SDS011;9458;50.942;5.074;2023-05-14T06:49:16;23.10;;;20.77;;
18657;SDS011;9458;50.942;5.074;2023-05-14T06:51:44;22.83;;;20.48;;
18657;SDS011;9458;50.942;5.074;2023-05-14T06:54:16;22.50;;;20.38;;
18657;SDS011;9458;50.942;5.074;2023-05-14T06:56:51;21.50;;;19.48;;
18657;SDS011;9458;50.942;5.074;2023-05-14T06:59:19;22.25;;;20.10;;
18657;SDS011;9458;50.942;5.074;2023-05-14T07:01:46;22.00;;;19.73;;
18657;SDS011;9458;50.942;5.074;2023-05-14T07:04:14;22.33;;;20.23;;
18657;SDS011;9458;50.942;5.074;2023-05-14T07:06:42;21.67;;;19.58;;
18657;SDS011;9458;50.942;5.074;2023-05-14T07:09:10;22.65;;;20.38;;
18657;SDS011;9458;50.942;5.074;2023-05-14T07:11:39;22.52;;;20.33;;
18657;SDS011;9458;50.942;5.074;2023-05-14T07:14:08;21.25;;;19.08;;
18657;SDS011;9458;50.942;5.074;2023-05-14T07:16:35;23.25;;;19.83;;
18657;SDS011;9458;50.942;5.074;2023-05-14T07:19:06;22.05;;;19.83;;
18657;SDS011;9458;50.942;5.074;2023-05-14T07:21:36;22.05;;;19.73;;
18657;SDS011;9458;50.942;5.074;2023-05-14T07:24:07;21.45;;;19.13;;
18657;SDS011;9458;50.942;5.074;2023-05-14T07:26:36;21.58;;;18.98;;
18657;SDS011;9458;50.942;5.074;2023-05-14T07:29:05;21.90;;;19.70;;
18657;SDS011;9458;50.942;5.074;2023-05-14T07:31:34;22.60;;;20.48;;
18657;SDS011;9458;50.942;5.074;2023-05-14T07:34:01;22.30;;;20.15;;
18657;SDS011;9458;50.942;5.074;2023-05-14T07:36:29;22.98;;;20.77;;
18657;SDS011;9458;50.942;5.074;2023-05-14T07:38:57;22.88;;;20.60;;
18657;SDS011;9458;50.942;5.074;2023-05-14T07:41:26;25.20;;;22.38;;
18657;SDS011;9458;50.942;5.074;2023-05-14T07:43:53;24.02;;;21.55;;
18657;SDS011;9458;50.942;5.074;2023-05-14T07:46:26;24.13;;;21.83;;
18657;SDS011;9458;50.942;5.074;2023-05-14T07:48:54;22.27;;;20.05;;
18657;SDS011;9458;50.942;5.074;2023-05-14T07:51:23;22.05;;;19.85;;
18657;SDS011;9458;50.942;5.074;2023-05-14T07:53:52;22.15;;;19.33;;
18657;SDS011;9458;50.942;5.074;2023-05-14T07:56:20;21.58;;;19.48;;
18657;SDS011;9458;50.942;5.074;2023-05-14T07:58:49;22.25;;;19.90;;
18657;SDS011;9458;50.942;5.074;2023-05-14T08:01:17;22.25;;;19.90;;
18657;SDS011;9458;50.942;5.074;2023-05-14T08:03:47;21.30;;;19.20;;
18657;SDS011;9458;50.942;5.074;2023-05-14T08:06:18;22.02;;;19.98;;
18657;SDS011;9458;50.942;5.074;2023-05-14T08:08:48;20.60;;;18.52;;
18657;SDS011;9458;50.942;5.074;2023-05-14T08:11:17;22.55;;;20.38;;
18657;SDS011;9458;50.942;5.074;2023-05-14T08:13:45;22.38;;;20.10;;
18657;SDS011;9458;50.942;5.074;2023-05-14T08:16:14;20.80;;;18.83;;
18657;SDS011;9458;50.942;5.074;2023-05-14T08:18:43;21.10;;;18.90;;
18657;SDS011;9458;50.942;5.074;2023-05-14T08:21:11;20.25;;;18.23;;
18657;SDS011;9458;50.942;5.074;2023-05-14T08:23:40;19.40;;;17.58;;
18657;SDS011;9458;50.942;5.074;2023-05-14T08:26:07;20.17;;;18.10;;
18657;SDS011;9458;50.942;5.074;2023-05-14T08:28:35;19.58;;;17.77;;
18657;SDS011;9458;50.942;5.074;2023-05-14T08:31:02;18.65;;;16.92;;
18657;SDS011;9458;50.942;5.074;2023-05-14T08:33:30;18.27;;;16.60;;
18657;SDS011;9458;50.942;5.074;2023-05-14T08:35:57;17.35;;;15.70;;
18657;SDS011;9458;50.942;5.074;2023-05-14T08:38:24;17.52;;;16.02;;
18657;SDS011;9458;50.942;5.074;2023-05-14T08:40:55;18.40;;;16.42;;
18657;SDS011;9458;50.942;5.074;2023-05-14T08:43:25;17.92;;;16.33;;
18657;SDS011;9458;50.942;5.074;2023-05-14T08:45:57;19.23;;;17.27;;
18657;SDS011;9458;50.942;5.074;2023-05-14T08:48:31;18.80;;;17.10;;
18657;SDS011;9458;50.942;5.074;2023-05-14T08:50:59;18.80;;;16.85;;
18657;SDS011;9458;50.942;5.074;2023-05-14T08:53:27;18.00;;;15.98;;
18657;SDS011;9458;50.942;5.074;2023-05-14T08:56:01;18.00;;;16.13;;
18657;SDS011;9458;50.942;5.074;2023-05-14T08:58:31;17.48;;;16.00;;
18657;SDS011;9458;50.942;5.074;2023-05-14T09:00:58;18.20;;;16.50;;
18657;SDS011;9458;50.942;5.074;2023-05-14T09:03:26;17.27;;;15.95;;
18657;SDS011;9458;50.942;5.074;2023-05-14T09:05:55;18.95;;;17.00;;
18657;SDS011;9458;50.942;5.074;2023-05-14T09:08:37;18.25;;;16.73;;
18657;SDS011;9458;50.942;5.074;2023-05-14T09:11:07;17.27;;;15.57;;
18657;SDS011;9458;50.942;5.074;2023-05-14T09:13:36;17.20;;;15.77;;
18657;SDS011;9458;50.942;5.074;2023-05-14T09:16:05;18.45;;;16.60;;
18657;SDS011;9458;50.942;5.074;2023-05-14T09:18:34;18.52;;;16.90;;
18657;SDS011;9458;50.942;5.074;2023-05-14T09:21:04;17.58;;;16.08;;
18657;SDS011;9458;50.942;5.074;2023-05-14T09:23:34;17.98;;;16.27;;
18657;SDS011;9458;50.942;5.074;2023-05-14T09:26:03;17.83;;;16.27;;
18657;SDS011;9458;50.942;5.074;2023-05-14T09:28:35;17.63;;;16.13;;
18657;SDS011;9458;50.942;5.074;2023-05-14T09:31:08;16.77;;;15.38;;
18657;SDS011;9458;50.942;5.074;2023-05-14T09:33:35;16.08;;;14.68;;
18657;SDS011;9458;50.942;5.074;2023-05-14T09:36:03;17.88;;;16.17;;
18657;SDS011;9458;50.942;5.074;2023-05-14T09:38:31;18.17;;;16.55;;
18657;SDS011;9458;50.942;5.074;2023-05-14T09:40:59;18.38;;;16.77;;
18657;SDS011;9458;50.942;5.074;2023-05-14T09:43:27;18.75;;;17.00;;
18657;SDS011;9458;50.942;5.074;2023-05-14T09:45:57;17.73;;;16.15;;
18657;SDS011;9458;50.942;5.074;2023-05-14T09:48:24;17.85;;;16.25;;
18657;SDS011;9458;50.942;5.074;2023-05-14T09:50:53;18.48;;;16.85;;
18657;SDS011;9458;50.942;5.074;2023-05-14T09:53:22;17.27;;;15.82;;
18657;SDS011;9458;50.942;5.074;2023-05-14T09:55:51;18.48;;;16.55;;
18657;SDS011;9458;50.942;5.074;2023-05-14T09:58:18;18.77;;;17.05;;
18657;SDS011;9458;50.942;5.074;2023-05-14T10:00:47;19.70;;;17.85;;
18657;SDS011;9458;50.942;5.074;2023-05-14T10:03:29;17.98;;;16.27;;
18657;SDS011;9458;50.942;5.074;2023-05-14T10:06:02;18.52;;;16.52;;
18657;SDS011;9458;50.942;5.074;2023-05-14T10:08:35;17.83;;;16.10;;
18657;SDS011;9458;50.942;5.074;2023-05-14T10:11:11;17.95;;;16.45;;
18657;SDS011;9458;50.942;5.074;2023-05-14T10:13:41;18.70;;;17.10;;
18657;SDS011;9458;50.942;5.074;2023-05-14T10:16:13;18.77;;;17.15;;
18657;SDS011;9458;50.942;5.074;2023-05-14T10:18:47;20.02;;;18.33;;
18657;SDS011;9458;50.942;5.074;2023-05-14T10:21:19;20.25;;;18.40;;
18657;SDS011;9458;50.942;5.074;2023-05-14T10:23:48;19.70;;;18.00;;
18657;SDS011;9458;50.942;5.074;2023-05-14T10:26:16;19.13;;;17.33;;
18657;SDS011;9458;50.942;5.074;2023-05-14T10:28:44;19.35;;;17.55;;
18657;SDS011;9458;50.942;5.074;2023-05-14T10:31:12;20.98;;;18.98;;
18657;SDS011;9458;50.942;5.074;2023-05-14T10:33:49;19.27;;;17.45;;
18657;SDS011;9458;50.942;5.074;2023-05-14T10:36:18;22.58;;;20.38;;
18657;SDS011;9458;50.942;5.074;2023-05-14T10:38:46;21.27;;;19.17;;
18657;SDS011;9458;50.942;5.074;2023-05-14T10:41:21;22.73;;;20.10;;
18657;SDS011;9458;50.942;5.074;2023-05-14T10:43:49;36.53;;;23.38;;
18657;SDS011;9458;50.942;5.074;2023-05-14T10:46:16;31.08;;;22.75;;
18657;SDS011;9458;50.942;5.074;2023-05-14T10:48:45;37.55;;;23.77;;
18657;SDS011;9458;50.942;5.074;2023-05-14T10:51:14;22.88;;;20.63;;
18657;SDS011;9458;50.942;5.074;2023-05-14T10:53:45;23.13;;;19.80;;
18657;SDS011;9458;50.942;5.074;2023-05-14T10:56:15;28.30;;;21.65;;
18657;SDS011;9458;50.942;5.074;2023-05-14T10:58:44;25.25;;;20.63;;
18657;SDS011;9458;50.942;5.074;2023-05-14T11:01:14;28.25;;;22.45;;
18657;SDS011;9458;50.942;5.074;2023-05-14T11:03:43;21.73;;;19.52;;
18657;SDS011;9458;50.942;5.074;2023-05-14T11:06:23;21.02;;;18.83;;
18657;SDS011;9458;50.942;5.074;2023-05-14T11:08:52;22.42;;;20.33;;
18657;SDS011;9458;50.942;5.074;2023-05-14T11:11:21;21.65;;;19.60;;
18657;SDS011;9458;50.942;5.074;2023-05-14T11:13:51;21.17;;;19.27;;
18657;SDS011;9458;50.942;5.074;2023-05-14T11:16:19;21.42;;;19.30;;
18657;SDS011;9458;50.942;5.074;2023-05-14T11:18:59;22.00;;;19.90;;
18657;SDS011;9458;50.942;5.074;2023-05-14T11:21:30;22.00;;;19.88;;
18657;SDS011;9458;50.942;5.074;2023-05-14T11:23:58;22.00;;;19.67;;
18657;SDS011;9458;50.942;5.074;2023-05-14T11:26:26;21.88;;;19.67;;
18657;SDS011;9458;50.942;5.074;2023-05-14T11:28:53;20.90;;;18.75;;
18657;SDS011;9458;50.942;5.074;2023-05-14T11:31:22;21.90;;;19.75;;
18657;SDS011;9458;50.942;5.074;2023-05-14T11:33:51;20.60;;;18.60;;
18657;SDS011;9458;50.942;5.074;2023-05-14T11:36:19;19.88;;;17.92;;
18657;SDS011;9458;50.942;5.074;2023-05-14T11:38:47;19.17;;;17.35;;
18657;SDS011;9458;50.942;5.074;2023-05-14T11:41:16;21.20;;;19.10;;
18657;SDS011;9458;50.942;5.074;2023-05-14T11:43:46;20.85;;;18.80;;
18657;SDS011;9458;50.942;5.074;2023-05-14T11:46:15;22.67;;;20.38;;
18657;SDS011;9458;50.942;5.074;2023-05-14T11:48:44;23.10;;;19.05;;
18657;SDS011;9458;50.942;5.074;2023-05-14T11:51:14;21.30;;;19.02;;
18657;SDS011;9458;50.942;5.074;2023-05-14T11:53:41;20.10;;;17.75;;
18657;SDS011;9458;50.942;5.074;2023-05-14T11:56:12;20.60;;;18.77;;
18657;SDS011;9458;50.942;5.074;2023-05-14T11:58:40;20.15;;;18.23;;
18657;SDS011;9458;50.942;5.074;2023-05-14T12:01:14;20.23;;;18.23;;
18657;SDS011;9458;50.942;5.074;2023-05-14T12:03:42;21.73;;;19.00;;
18657;SDS011;9458;50.942;5.074;2023-05-14T12:06:13;21.63;;;19.40;;
18657;SDS011;9458;50.942;5.074;2023-05-14T12:08:40;19.52;;;17.52;;
18657;SDS011;9458;50.942;5.074;2023-05-14T12:11:13;20.13;;;18.00;;
18657;SDS011;9458;50.942;5.074;2023-05-14T12:13:44;19.77;;;17.95;;
18657;SDS011;9458;50.942;5.074;2023-05-14T12:16:12;27.55;;;18.02;;
18657;SDS011;9458;50.942;5.074;2023-05-14T12:21:39;18.48;;;16.52;;
18657;SDS011;9458;50.942;5.074;2023-05-14T12:24:08;24.17;;;18.08;;
18657;SDS011;9458;50.942;5.074;2023-05-14T12:26:37;22.60;;;16.17;;
18657;SDS011;9458;50.942;5.074;2023-05-14T12:29:04;18.23;;;16.42;;
18657;SDS011;9458;50.942;5.074;2023-05-14T12:31:32;19.02;;;16.98;;
18657;SDS011;9458;50.942;5.074;2023-05-14T12:34:01;17.98;;;16.30;;
18657;SDS011;9458;50.942;5.074;2023-05-14T12:36:30;21.60;;;15.93;;
18657;SDS011;9458;50.942;5.074;2023-05-14T12:39:00;17.63;;;16.02;;
18657;SDS011;9458;50.942;5.074;2023-05-14T12:41:28;18.48;;;16.60;;
18657;SDS011;9458;50.942;5.074;2023-05-14T12:43:56;16.95;;;15.27;;
18657;SDS011;9458;50.942;5.074;2023-05-14T12:46:25;17.13;;;15.55;;
18657;SDS011;9458;50.942;5.074;2023-05-14T12:48:53;16.48;;;14.80;;
18657;SDS011;9458;50.942;5.074;2023-05-14T12:51:21;16.70;;;15.00;;
18657;SDS011;9458;50.942;5.074;2023-05-14T12:53:49;15.80;;;14.35;;
18657;SDS011;9458;50.942;5.074;2023-05-14T12:56:20;16.60;;;15.07;;
18657;SDS011;9458;50.942;5.074;2023-05-14T12:58:52;15.63;;;14.10;;
18657;SDS011;9458;50.942;5.074;2023-05-14T13:01:20;15.48;;;14.18;;
18657;SDS011;9458;50.942;5.074;2023-05-14T13:03:50;14.82;;;13.35;;
18657;SDS011;9458;50.942;5.074;2023-05-14T13:06:17;14.25;;;12.88;;
18657;SDS011;9458;50.942;5.074;2023-05-14T13:08:44;14.15;;;12.82;;
18657;SDS011;9458;50.942;5.074;2023-05-14T13:11:12;12.52;;;11.43;;
18657;SDS011;9458;50.942;5.074;2023-05-14T13:13:42;14.48;;;13.10;;
18657;SDS011;9458;50.942;5.074;2023-05-14T13:16:10;13.40;;;12.20;;
18657;SDS011;9458;50.942;5.074;2023-05-14T13:18:41;13.55;;;12.43;;
18657;SDS011;9458;50.942;5.074;2023-05-14T13:21:08;13.63;;;11.88;;
18657;SDS011;9458;50.942;5.074;2023-05-14T13:23:36;13.88;;;12.38;;
18657;SDS011;9458;50.942;5.074;2023-05-14T13:26:04;11.48;;;10.57;;
18657;SDS011;9458;50.942;5.074;2023-05-14T13:28:31;13.00;;;11.63;;
18657;SDS011;9458;50.942;5.074;2023-05-14T13:31:04;11.77;;;10.57;;
18657;SDS011;9458;50.942;5.074;2023-05-14T13:33:36;21.35;;;9.65;;
18657;SDS011;9458;50.942;5.074;2023-05-14T13:36:05;20.15;;;11.32;;
18657;SDS011;9458;50.942;5.074;2023-05-14T13:38:33;11.25;;;10.25;;
18657;SDS011;9458;50.942;5.074;2023-05-14T13:41:00;10.77;;;9.88;;
18657;SDS011;9458;50.942;5.074;2023-05-14T13:43:28;11.50;;;10.48;;
18657;SDS011;9458;50.942;5.074;2023-05-14T13:45:57;10.00;;;9.18;;
18657;SDS011;9458;50.942;5.074;2023-05-14T13:48:27;10.88;;;9.75;;
18657;SDS011;9458;50.942;5.074;2023-05-14T13:50:55;74.78;;;14.23;;
18657;SDS011;9458;50.942;5.074;2023-05-14T13:53:23;9.00;;;8.10;;
18657;SDS011;9458;50.942;5.074;2023-05-14T13:55:51;8.68;;;7.78;;
18657;SDS011;9458;50.942;5.074;2023-05-14T13:58:23;7.75;;;6.80;;
18657;SDS011;9458;50.942;5.074;2023-05-14T14:00:50;7.97;;;7.15;;
18657;SDS011;9458;50.942;5.074;2023-05-14T14:03:19;8.20;;;7.47;;
18657;SDS011;9458;50.942;5.074;2023-05-14T14:05:49;14.95;;;7.82;;
18657;SDS011;9458;50.942;5.074;2023-05-14T14:08:17;9.73;;;8.93;;
18657;SDS011;9458;50.942;5.074;2023-05-14T14:10:45;10.13;;;9.15;;
18657;SDS011;9458;50.942;5.074;2023-05-14T14:13:12;12.30;;;9.18;;
18657;SDS011;9458;50.942;5.074;2023-05-14T14:15:40;9.43;;;8.57;;
18657;SDS011;9458;50.942;5.074;2023-05-14T14:18:08;9.30;;;8.40;;
18657;SDS011;9458;50.942;5.074;2023-05-14T14:20:36;8.48;;;7.68;;
18657;SDS011;9458;50.942;5.074;2023-05-14T14:23:06;8.23;;;7.53;;
18657;SDS011;9458;50.942;5.074;2023-05-14T14:25:34;11.45;;;7.80;;
18657;SDS011;9458;50.942;5.074;2023-05-14T14:28:02;8.52;;;7.72;;
18657;SDS011;9458;50.942;5.074;2023-05-14T14:30:31;8.88;;;7.93;;
18657;SDS011;9458;50.942;5.074;2023-05-14T14:32:58;8.13;;;7.43;;
18657;SDS011;9458;50.942;5.074;2023-05-14T14:35:26;7.90;;;7.15;;
18657;SDS011;9458;50.942;5.074;2023-05-14T14:37:55;7.40;;;6.78;;
18657;SDS011;9458;50.942;5.074;2023-05-14T14:40:24;7.78;;;6.90;;
18657;SDS011;9458;50.942;5.074;2023-05-14T14:42:51;8.18;;;7.57;;
18657;SDS011;9458;50.942;5.074;2023-05-14T14:45:21;8.73;;;7.93;;
18657;SDS011;9458;50.942;5.074;2023-05-14T14:47:48;8.40;;;7.70;;
18657;SDS011;9458;50.942;5.074;2023-05-14T14:50:16;9.02;;;8.20;;
18657;SDS011;9458;50.942;5.074;2023-05-14T14:52:44;8.77;;;7.88;;
18657;SDS011;9458;50.942;5.074;2023-05-14T14:55:12;7.68;;;6.90;;